createdAt,value
2022-10-22T00:02:20.718Z,20.70
2022-10-22T00:07:23.015Z,22.80
2022-10-22T00:12:25.854Z,20.10
2022-10-22T00:17:30.064Z,18.00
2022-10-22T00:22:32.046Z,18.60
2022-10-22T00:27:33.841Z,19.00
2022-10-22T00:32:35.638Z,21.90
2022-10-22T00:37:37.665Z,19.70
2022-10-22T00:42:39.903Z,22.50
2022-10-22T00:47:49.135Z,23.60
2022-10-22T00:52:51.643Z,22.60
2022-10-22T00:57:55.963Z,21.80
2022-10-22T01:02:58.454Z,24.90
2022-10-22T01:08:00.461Z,21.10
2022-10-22T01:13:21.060Z,22.10
2022-10-22T01:19:05.930Z,21.70
2022-10-22T01:24:20.673Z,21.00
2022-10-22T01:29:30.496Z,19.20
2022-10-22T01:34:33.701Z,21.20
2022-10-22T01:39:38.691Z,22.60
2022-10-22T01:44:41.521Z,19.80
2022-10-22T01:50:08.596Z,21.10
2022-10-22T01:55:38.569Z,22.30
2022-10-22T02:00:47.519Z,27.80
2022-10-22T02:05:54.202Z,25.30
2022-10-22T02:10:58.655Z,22.00
2022-10-22T02:16:03.209Z,18.70
2022-10-22T02:26:54.677Z,18.90
2022-10-22T02:31:58.881Z,23.80
2022-10-22T02:37:03.578Z,24.10
2022-10-22T02:42:05.811Z,22.30
2022-10-22T02:47:07.749Z,21.40
2022-10-22T02:52:09.598Z,23.00
2022-10-22T03:02:26.631Z,21.80
2022-10-22T03:07:28.609Z,22.50
2022-10-22T03:12:30.726Z,22.10
2022-10-22T03:17:32.656Z,21.60
2022-10-22T03:22:36.625Z,30.30
2022-10-22T03:27:40.229Z,20.20
2022-10-22T03:32:42.280Z,25.10
2022-10-22T03:37:44.150Z,21.40
2022-10-22T03:42:46.183Z,21.10
2022-10-22T03:47:48.178Z,21.50
2022-10-22T03:52:50.178Z,24.40
2022-10-22T03:58:04.320Z,22.60
2022-10-22T04:03:10.789Z,25.10
2022-10-22T04:08:12.553Z,29.80
2022-10-22T04:13:14.448Z,25.20
2022-10-22T04:18:16.366Z,23.70
2022-10-22T04:23:18.217Z,28.00
2022-10-22T04:28:20.158Z,24.60
2022-10-22T04:33:22.136Z,22.20
2022-10-22T04:38:24.050Z,18.20
2022-10-22T04:43:26.055Z,27.20
2022-10-22T04:48:27.839Z,28.30
2022-10-22T04:53:29.693Z,20.10
2022-10-22T04:58:31.710Z,22.60
2022-10-22T05:03:33.665Z,26.80
2022-10-22T05:08:36.051Z,24.60
2022-10-22T05:13:38.469Z,23.80
2022-10-22T05:18:42.823Z,23.20
2022-10-22T05:23:46.295Z,22.00
2022-10-22T05:28:50.261Z,23.20
2022-10-22T05:33:52.249Z,27.10
2022-10-22T05:38:54.513Z,24.30
2022-10-22T05:44:00.526Z,22.50
2022-10-22T05:49:04.998Z,22.80
2022-10-22T05:54:29.289Z,21.40
2022-10-22T05:59:39.297Z,23.20
2022-10-22T06:04:41.050Z,25.60
2022-10-22T06:09:43.116Z,25.00
2022-10-22T06:14:45.239Z,26.00
2022-10-22T06:19:47.127Z,23.60
2022-10-22T06:24:58.500Z,24.00
2022-10-22T06:30:00.719Z,25.30
2022-10-22T06:35:02.588Z,26.80
2022-10-22T06:40:05.055Z,26.20
2022-10-22T06:45:08.099Z,27.60
2022-10-22T06:50:10.168Z,21.20
2022-10-22T06:55:32.321Z,21.30
2022-10-22T07:05:41.972Z,22.00
2022-10-22T07:10:43.780Z,25.40
2022-10-22T07:15:45.684Z,30.10
2022-10-22T07:20:50.751Z,31.90
2022-10-22T07:25:53.096Z,30.40
2022-10-22T07:30:55.098Z,36.60
2022-10-22T07:36:02.278Z,34.40
2022-10-22T07:41:04.883Z,27.80
2022-10-22T07:46:08.727Z,34.40
2022-10-22T07:51:10.679Z,32.50
2022-10-22T07:56:12.575Z,30.60
2022-10-22T08:01:14.599Z,28.60
2022-10-22T08:06:17.929Z,24.50
2022-10-22T08:11:19.825Z,26.30
2022-10-22T08:16:22.980Z,26.20
2022-10-22T08:21:25.199Z,29.90
2022-10-22T08:26:27.133Z,29.70
2022-10-22T08:31:29.310Z,30.90
2022-10-22T08:36:31.910Z,32.30
2022-10-22T08:41:46.610Z,27.10
2022-10-22T08:47:20.053Z,26.90
2022-10-22T08:52:49.302Z,29.10
2022-10-22T08:58:27.300Z,29.90
2022-10-22T09:04:28.405Z,31.10
2022-10-22T09:09:35.972Z,33.40
2022-10-22T09:14:46.868Z,24.60
2022-10-22T09:19:49.050Z,24.70
2022-10-22T09:25:08.298Z,25.80
2022-10-22T09:30:27.056Z,32.30
2022-10-22T09:35:33.403Z,32.30
2022-10-22T09:40:48.677Z,24.90
2022-10-22T09:45:58.275Z,35.20
2022-10-22T09:51:18.225Z,30.50
2022-10-22T09:56:35.502Z,30.00
2022-10-22T10:01:40.968Z,32.60
2022-10-22T10:06:44.562Z,26.60
2022-10-22T10:12:03.668Z,29.70
2022-10-22T10:17:18.581Z,31.40
2022-10-22T10:22:45.011Z,31.50
2022-10-22T10:27:55.829Z,40.60
2022-10-22T10:33:39.136Z,35.10
2022-10-22T10:39:20.314Z,33.80
2022-10-22T10:44:48.035Z,35.40
2022-10-22T10:49:55.029Z,30.30
2022-10-22T10:55:25.362Z,33.90
2022-10-22T11:00:36.033Z,31.80
2022-10-22T11:05:53.297Z,38.30
2022-10-22T11:10:58.828Z,30.50
2022-10-22T11:16:26.666Z,28.90
2022-10-22T11:21:55.978Z,28.00
2022-10-22T11:27:07.013Z,29.80
2022-10-22T11:32:18.870Z,28.20
2022-10-22T11:37:24.822Z,31.30
2022-10-22T11:42:57.312Z,35.50
2022-10-22T11:48:12.652Z,32.20
2022-10-22T11:53:14.441Z,32.50
2022-10-22T11:58:28.477Z,31.90
2022-10-22T12:03:33.300Z,39.10
2022-10-22T12:08:46.889Z,32.10
2022-10-22T12:14:01.046Z,35.30
2022-10-22T12:19:12.928Z,37.30
2022-10-22T12:24:19.313Z,31.40
2022-10-22T12:29:30.275Z,32.90
2022-10-22T12:34:51.414Z,32.20
2022-10-22T12:39:53.182Z,28.60
2022-10-22T12:44:56.558Z,29.20
2022-10-22T12:49:58.966Z,28.50
2022-10-22T12:55:01.028Z,31.50
2022-10-22T13:00:04.187Z,40.00
2022-10-22T13:05:30.979Z,31.60
2022-10-22T13:10:35.333Z,34.70
2022-10-22T13:15:39.572Z,34.00
2022-10-22T13:21:01.890Z,33.70
2022-10-22T13:26:14.096Z,37.60
2022-10-22T13:31:19.557Z,41.40
2022-10-22T13:36:22.690Z,37.60
2022-10-22T13:41:32.203Z,35.10
2022-10-22T13:46:40.598Z,37.20
2022-10-22T13:51:43.229Z,37.80
2022-10-22T13:56:45.782Z,41.90
2022-10-22T14:01:48.167Z,48.20
2022-10-22T14:06:50.329Z,46.80
2022-10-22T14:11:52.266Z,39.20
2022-10-22T14:16:54.464Z,43.40
2022-10-22T14:21:56.540Z,58.30
2022-10-22T14:26:58.965Z,96.30
2022-10-22T14:32:02.417Z,96.30
2022-10-22T14:37:04.209Z,59.90
2022-10-22T14:42:06.019Z,48.60
2022-10-22T14:47:08.242Z,48.10
2022-10-22T14:52:30.265Z,46.20
2022-10-22T14:57:45.304Z,55.90
2022-10-22T15:02:48.116Z,57.70
2022-10-22T15:07:49.959Z,57.30
2022-10-22T15:12:52.190Z,68.90
2022-10-22T15:17:54.268Z,78.00
2022-10-22T15:22:56.789Z,60.90
2022-10-22T15:28:04.778Z,56.10
2022-10-22T15:33:11.705Z,52.90
2022-10-22T15:38:14.076Z,64.50
2022-10-22T15:43:15.894Z,63.20
2022-10-22T15:48:21.537Z,70.20
2022-10-22T15:53:23.414Z,62.30
2022-10-22T15:58:25.393Z,71.20
2022-10-22T16:03:27.413Z,65.60
2022-10-22T16:08:29.864Z,71.40
2022-10-22T16:13:31.927Z,61.80
2022-10-22T16:18:34.037Z,70.20
2022-10-22T16:23:36.521Z,69.80
2022-10-22T16:28:38.953Z,72.00
2022-10-22T16:33:47.895Z,60.90
2022-10-22T16:38:52.086Z,81.20
2022-10-22T16:43:55.495Z,89.50
2022-10-22T16:48:57.901Z,71.40
2022-10-22T16:53:59.929Z,104.40
2022-10-22T16:59:01.949Z,69.20
2022-10-22T17:04:04.151Z,71.00
2022-10-22T17:09:06.315Z,74.80
2022-10-22T17:14:08.603Z,73.60
2022-10-22T17:19:15.358Z,66.80
2022-10-22T17:24:18.390Z,57.60
2022-10-22T17:29:29.969Z,64.60
2022-10-22T17:34:33.400Z,65.80
2022-10-22T17:39:36.592Z,65.80
2022-10-22T17:44:38.507Z,68.60
2022-10-22T17:49:41.233Z,63.00
2022-10-22T17:54:43.593Z,64.10
2022-10-22T17:59:45.499Z,69.30
2022-10-22T18:04:52.231Z,62.50
2022-10-22T18:09:54.170Z,66.40
2022-10-22T18:15:06.360Z,64.40
2022-10-22T18:20:21.693Z,64.50
2022-10-22T18:25:24.092Z,76.80
2022-10-22T18:30:26.225Z,77.20
2022-10-22T18:35:32.207Z,82.90
2022-10-22T18:40:36.014Z,63.70
2022-10-22T18:45:45.998Z,66.80
2022-10-22T18:50:47.825Z,57.80
2022-10-22T18:55:49.617Z,42.10
2022-10-22T19:00:52.038Z,64.60
2022-10-22T19:06:07.484Z,61.00
2022-10-22T19:11:15.427Z,62.10
2022-10-22T19:16:24.106Z,62.50
2022-10-22T19:21:26.361Z,55.50
2022-10-22T19:26:30.538Z,55.70
2022-10-22T19:31:32.672Z,62.20
2022-10-22T19:36:55.238Z,57.60
2022-10-22T19:42:12.406Z,57.60
2022-10-22T19:47:15.690Z,68.20
2022-10-22T19:52:17.666Z,67.00
2022-10-22T19:57:19.567Z,60.10
2022-10-22T20:02:23.162Z,60.10
2022-10-22T20:07:25.238Z,64.50
2022-10-22T20:12:27.133Z,61.80
2022-10-22T20:17:29.070Z,69.80
2022-10-22T20:22:31.266Z,65.30
2022-10-22T20:27:33.044Z,62.00
2022-10-22T20:32:39.288Z,58.00
2022-10-22T20:37:41.710Z,59.60
2022-10-22T20:42:44.241Z,61.30
2022-10-22T20:47:51.622Z,66.40
2022-10-22T20:53:00.519Z,57.10
2022-10-22T20:58:02.441Z,54.10
2022-10-22T21:03:04.734Z,62.10
2022-10-22T21:08:06.940Z,59.50
2022-10-22T21:13:14.068Z,58.00
2022-10-22T21:18:16.397Z,61.60
2022-10-22T21:23:18.286Z,60.10
2022-10-22T21:28:20.235Z,58.10
2022-10-22T21:33:22.157Z,48.50
2022-10-22T21:38:25.382Z,49.40
2022-10-22T21:43:27.322Z,44.20
2022-10-22T21:48:29.207Z,49.90
2022-10-22T21:53:31.009Z,44.80
2022-10-22T21:58:36.310Z,52.60
2022-10-22T22:03:38.491Z,46.30
2022-10-22T22:08:40.576Z,54.10
2022-10-22T22:13:42.994Z,49.40
2022-10-22T22:18:44.827Z,45.40
2022-10-22T22:23:49.124Z,45.70
2022-10-22T22:28:51.185Z,54.20
2022-10-22T22:34:02.344Z,54.20
2022-10-22T22:39:06.797Z,64.60
2022-10-22T22:44:08.717Z,68.30
2022-10-22T22:49:12.991Z,58.80
2022-10-22T22:54:14.862Z,59.20
2022-10-22T22:59:16.776Z,63.00
2022-10-22T23:04:23.624Z,57.20
2022-10-22T23:09:28.428Z,57.40
2022-10-22T23:14:33.144Z,63.10
2022-10-22T23:19:35.155Z,67.80
2022-10-22T23:24:38.174Z,80.30
2022-10-22T23:29:40.136Z,57.10
2022-10-22T23:34:42.370Z,56.60
2022-10-22T23:39:45.246Z,55.80
2022-10-22T23:50:23.621Z,54.30
2022-10-22T23:55:25.694Z,48.80
